createdAt,value
2023-05-03T00:00:19.284Z,102269.69
2023-05-03T00:02:47.806Z,102270.48
2023-05-03T00:05:16.378Z,102265.02
2023-05-03T00:07:45.560Z,102265.02
2023-05-03T00:10:14.612Z,102267.53
2023-05-03T00:12:43.891Z,102263.41
2023-05-03T00:15:12.632Z,102265.90
2023-05-03T00:17:40.780Z,102259.95
2023-05-03T00:20:09.656Z,102262.10
2023-05-03T00:22:38.030Z,102260.50
2023-05-03T00:25:06.381Z,102260.93
2023-05-03T00:27:34.282Z,102259.68
2023-05-03T00:30:02.500Z,102258.08
2023-05-03T00:32:30.712Z,102262.98
2023-05-03T00:34:59.234Z,102260.60
2023-05-03T00:37:27.504Z,102254.95
2023-05-03T00:39:55.430Z,102250.85
2023-05-03T00:42:23.408Z,102250.66
2023-05-03T00:44:51.978Z,102247.91
2023-05-03T00:47:21.398Z,102243.89
2023-05-03T00:49:49.476Z,102251.05
2023-05-03T00:52:17.905Z,102240.62
2023-05-03T00:54:45.809Z,102237.02
2023-05-03T00:57:13.676Z,102233.36
2023-05-03T00:59:41.647Z,102232.48
2023-05-03T01:02:09.707Z,102236.92
2023-05-03T01:04:39.344Z,102234.08
2023-05-03T01:07:33.391Z,102234.08
2023-05-03T01:10:36.206Z,102224.59
2023-05-03T01:13:13.290Z,102223.71
2023-05-03T01:15:49.487Z,102220.05
2023-05-03T01:18:28.264Z,102221.23
2023-05-03T01:20:57.987Z,102223.62
2023-05-03T01:23:34.655Z,102218.64
2023-05-03T01:26:26.035Z,102221.39
2023-05-03T01:28:54.130Z,102219.33
2023-05-03T01:31:47.717Z,102220.84
2023-05-03T01:34:18.392Z,102225.31
2023-05-03T01:36:47.322Z,102219.95
2023-05-03T01:39:26.114Z,102227.28
2023-05-03T01:41:55.406Z,102224.30
2023-05-03T01:44:24.862Z,102225.55
2023-05-03T01:46:52.830Z,102232.09
2023-05-03T01:49:20.748Z,102241.93
2023-05-03T01:51:48.599Z,102239.51
2023-05-03T01:54:17.554Z,102240.33
2023-05-03T01:56:45.948Z,102234.96
2023-05-03T01:59:13.874Z,102233.69
2023-05-03T02:01:41.876Z,102236.99
2023-05-03T02:04:09.905Z,102243.53
2023-05-03T02:06:37.960Z,102230.94
2023-05-03T02:09:05.984Z,102228.98
2023-05-03T02:11:33.984Z,102228.42
2023-05-03T02:14:01.870Z,102228.78
2023-05-03T02:16:30.560Z,102234.87
2023-05-03T02:19:00.756Z,102238.49
2023-05-03T02:21:28.748Z,102246.21
2023-05-03T02:23:56.819Z,102246.21
2023-05-03T02:26:24.657Z,102245.49
2023-05-03T02:28:52.625Z,102248.23
2023-05-03T02:31:20.591Z,102244.58
2023-05-03T02:33:48.444Z,102249.94
2023-05-03T02:36:16.321Z,102245.91
2023-05-03T02:38:44.309Z,102242.81
2023-05-03T02:41:12.347Z,102245.23
2023-05-03T02:43:40.378Z,102243.63
2023-05-03T02:46:08.301Z,102243.53
2023-05-03T02:48:36.132Z,102241.01
2023-05-03T02:51:04.723Z,102242.62
2023-05-03T02:53:32.789Z,102244.94
2023-05-03T02:56:00.666Z,102242.45
2023-05-03T02:58:28.672Z,102245.66
2023-05-03T03:00:56.652Z,102235.48
2023-05-03T03:03:24.486Z,102239.93
2023-05-03T03:05:52.381Z,102239.24
2023-05-03T03:08:20.313Z,102239.24
2023-05-03T03:10:48.359Z,102235.81
2023-05-03T03:13:16.302Z,102226.00
2023-05-03T03:15:44.165Z,102220.18
2023-05-03T03:18:12.200Z,102225.80
2023-05-03T03:20:40.210Z,102229.44
2023-05-03T03:23:08.651Z,102238.04
2023-05-03T03:25:36.561Z,102231.53
2023-05-03T03:28:04.404Z,102225.80
2023-05-03T03:30:32.679Z,102229.01
2023-05-03T03:33:00.690Z,102227.31
2023-05-03T03:35:28.930Z,102225.25
2023-05-03T03:37:56.803Z,102231.34
2023-05-03T03:40:24.741Z,102230.94
2023-05-03T03:42:52.544Z,102233.30
2023-05-03T03:45:20.681Z,102227.57
2023-05-03T03:47:48.572Z,102221.03
2023-05-03T03:50:16.615Z,102229.60
2023-05-03T03:52:44.482Z,102230.61
2023-05-03T03:55:12.935Z,102233.13
2023-05-03T03:57:40.875Z,102234.38
2023-05-03T04:00:13.085Z,102241.44
2023-05-03T04:02:41.322Z,102238.69
2023-05-03T04:05:09.602Z,102240.03
2023-05-03T04:07:37.534Z,102242.52
2023-05-03T04:10:05.925Z,102239.31
2023-05-03T04:12:35.382Z,102248.23
2023-05-03T04:15:03.700Z,102247.81
2023-05-03T04:17:31.665Z,102254.78
2023-05-03T04:19:59.505Z,102254.78
2023-05-03T04:22:27.452Z,102257.63
2023-05-03T04:24:56.056Z,102258.41
2023-05-03T04:27:24.066Z,102261.65
2023-05-03T04:29:52.169Z,102258.77
2023-05-03T04:32:24.449Z,102264.85
2023-05-03T04:34:54.005Z,102259.48
2023-05-03T04:37:23.683Z,102258.67
2023-05-03T04:39:51.796Z,102257.98
2023-05-03T04:42:19.790Z,102253.54
2023-05-03T04:44:48.218Z,102264.59
2023-05-03T04:47:16.169Z,102264.23
2023-05-03T04:49:43.986Z,102264.78
2023-05-03T04:52:12.073Z,102260.77
2023-05-03T04:54:40.220Z,102267.37
2023-05-03T04:57:08.497Z,102269.07
2023-05-03T04:59:36.380Z,102262.10
2023-05-03T05:02:04.373Z,102266.55
2023-05-03T05:04:32.353Z,102263.28
2023-05-03T05:07:00.838Z,102275.41
2023-05-03T05:09:30.634Z,102277.34
2023-05-03T05:11:58.788Z,102273.62
2023-05-03T05:14:29.650Z,102276.75
2023-05-03T05:16:57.875Z,102280.64
2023-05-03T05:19:25.810Z,102277.60
2023-05-03T05:21:54.102Z,102280.80
2023-05-03T05:24:22.116Z,102294.25
2023-05-03T05:26:50.467Z,102296.54
2023-05-03T05:29:18.478Z,102304.58
2023-05-03T05:31:46.493Z,102297.95
2023-05-03T05:34:14.524Z,102305.17
2023-05-03T05:36:42.484Z,102299.38
2023-05-03T05:39:11.041Z,102300.88
2023-05-03T05:41:39.035Z,102309.35
2023-05-03T05:44:07.304Z,102309.71
2023-05-03T05:46:35.273Z,102311.32
2023-05-03T05:49:03.234Z,102310.76
2023-05-03T05:51:33.110Z,102313.51
2023-05-03T05:54:00.992Z,102306.09
2023-05-03T05:56:28.975Z,102300.82
2023-05-03T05:58:57.532Z,102307.27
2023-05-03T06:01:25.527Z,102307.13
2023-05-03T06:03:53.623Z,102310.73
2023-05-03T06:06:21.560Z,102307.75
2023-05-03T06:08:51.256Z,102313.24
2023-05-03T06:11:19.662Z,102309.84
2023-05-03T06:13:47.662Z,102306.87
2023-05-03T06:16:15.617Z,102312.85
2023-05-03T06:18:43.583Z,102312.27
2023-05-03T06:21:12.674Z,102309.55
2023-05-03T06:23:41.705Z,102302.91
2023-05-03T06:26:10.082Z,102311.28
2023-05-03T06:28:38.473Z,102312.23
2023-05-03T06:31:06.601Z,102303.66
2023-05-03T06:33:34.542Z,102308.34
2023-05-03T06:36:02.948Z,102310.30
2023-05-03T06:38:30.785Z,102305.50
2023-05-03T06:40:58.684Z,102313.09
2023-05-03T06:43:27.139Z,102308.83
2023-05-03T06:45:55.148Z,102305.30
2023-05-03T06:48:23.205Z,102308.41
2023-05-03T06:50:52.066Z,102318.05
2023-05-03T06:53:20.212Z,102319.55
2023-05-03T06:55:48.332Z,102307.52
2023-05-03T06:58:17.236Z,102309.62
2023-05-03T07:00:45.157Z,102301.90
2023-05-03T07:03:13.270Z,102301.90
2023-05-03T07:05:42.025Z,102304.13
2023-05-03T07:08:09.992Z,102301.57
2023-05-03T07:10:37.960Z,102299.97
2023-05-03T07:13:05.806Z,102307.42
2023-05-03T07:15:33.812Z,102296.77
2023-05-03T07:18:01.620Z,102297.45
2023-05-03T07:20:29.728Z,102291.60
2023-05-03T07:22:57.732Z,102292.74
2023-05-03T07:25:25.657Z,102288.95
2023-05-03T07:27:53.820Z,102283.69
2023-05-03T07:30:22.107Z,102291.70
2023-05-03T07:32:50.276Z,102287.91
2023-05-03T07:35:18.659Z,102291.34
2023-05-03T07:37:46.654Z,102283.42
2023-05-03T07:40:14.616Z,102281.10
2023-05-03T07:42:42.498Z,102276.98
2023-05-03T07:45:11.014Z,102270.67
2023-05-03T07:47:40.692Z,102277.51
2023-05-03T07:50:09.163Z,102273.05
2023-05-03T07:52:38.672Z,102261.25
2023-05-03T07:55:08.197Z,102264.91
2023-05-03T07:57:36.061Z,102261.13
2023-05-03T08:00:06.854Z,102260.99
2023-05-03T08:02:34.932Z,102260.86
2023-05-03T08:05:03.156Z,102259.00
2023-05-03T08:07:31.884Z,102257.27
2023-05-03T08:10:00.385Z,102244.28
2023-05-03T08:12:28.959Z,102250.20
2023-05-03T08:14:57.842Z,102243.07
2023-05-03T08:17:25.762Z,102246.93
2023-05-03T08:19:53.734Z,102243.46
2023-05-03T08:22:22.022Z,102239.54
2023-05-03T08:24:50.493Z,102231.37
2023-05-03T08:27:18.677Z,102234.30
2023-05-03T08:29:46.677Z,102222.24
2023-05-03T08:32:14.652Z,102229.93
2023-05-03T08:34:42.800Z,102224.50
2023-05-03T08:37:10.664Z,102222.30
2023-05-03T08:39:38.582Z,102221.82
2023-05-03T08:42:10.349Z,102226.46
2023-05-03T08:44:39.591Z,102226.20
2023-05-03T08:47:08.632Z,102216.36
2023-05-03T08:49:37.849Z,102224.56
2023-05-03T08:52:07.887Z,102223.32
2023-05-03T08:54:35.828Z,102229.86
2023-05-03T08:57:03.976Z,102228.48
2023-05-03T08:59:31.842Z,102231.37
2023-05-03T09:01:59.849Z,102224.50
2023-05-03T09:04:35.962Z,102220.05
2023-05-03T09:07:13.977Z,102225.31
2023-05-03T09:09:42.469Z,102220.41
2023-05-03T09:12:11.345Z,102215.27
2023-05-03T09:14:48.737Z,102222.80
2023-05-03T09:17:19.271Z,102222.63
2023-05-03T09:19:57.623Z,102221.66
2023-05-03T09:22:29.240Z,102217.14
2023-05-03T09:24:59.812Z,102219.37
2023-05-03T09:27:28.545Z,102220.34
2023-05-03T09:29:56.962Z,102218.52
2023-05-03T09:32:25.598Z,102210.47
2023-05-03T09:35:10.418Z,102212.53
2023-05-03T09:37:39.891Z,102206.38
2023-05-03T09:40:12.904Z,102212.30
2023-05-03T09:42:44.941Z,102208.09
2023-05-03T09:45:13.156Z,102203.37
2023-05-03T09:48:08.768Z,102208.51
2023-05-03T09:50:38.001Z,102199.19
2023-05-03T09:53:07.300Z,102195.13
2023-05-03T09:55:40.812Z,102203.30
2023-05-03T09:58:09.345Z,102198.30
2023-05-03T10:00:41.726Z,102201.31
2023-05-03T10:03:11.759Z,102201.12
2023-05-03T10:05:52.717Z,102203.70
2023-05-03T10:08:28.465Z,102199.55
2023-05-03T10:10:56.570Z,102194.58
2023-05-03T10:13:25.461Z,102195.88
2023-05-03T10:16:06.781Z,102189.41
2023-05-03T10:18:39.110Z,102195.00
2023-05-03T10:21:15.851Z,102186.27
2023-05-03T10:24:10.781Z,102193.56
2023-05-03T10:26:38.676Z,102189.87
2023-05-03T10:29:08.542Z,102184.73
2023-05-03T10:31:49.683Z,102191.08
2023-05-03T10:34:22.962Z,102173.39
2023-05-03T10:36:53.840Z,102172.41
2023-05-03T10:39:23.379Z,102173.29
2023-05-03T10:42:10.560Z,102164.76
2023-05-03T10:44:52.520Z,102163.74
2023-05-03T10:47:25.423Z,102167.30
2023-05-03T10:50:18.397Z,102164.04
2023-05-03T10:52:46.429Z,102167.44
2023-05-03T10:55:22.472Z,102171.23
2023-05-03T10:57:51.699Z,102163.88
2023-05-03T11:00:34.974Z,102162.95
2023-05-03T11:03:25.041Z,102159.85
2023-05-03T11:05:56.384Z,102158.64
2023-05-03T11:08:27.327Z,102155.08
2023-05-03T11:11:03.876Z,102147.26
2023-05-03T11:13:31.935Z,102146.87
2023-05-03T11:15:59.916Z,102148.05
2023-05-03T11:18:28.910Z,102150.20
2023-05-03T11:20:57.295Z,102151.87
2023-05-03T11:23:32.840Z,102155.92
2023-05-03T11:26:00.829Z,102154.06
2023-05-03T11:28:28.884Z,102147.16
2023-05-03T11:30:56.810Z,102146.15
2023-05-03T11:33:25.170Z,102145.16
2023-05-03T11:35:57.586Z,102147.81
2023-05-03T11:38:25.707Z,102151.80
2023-05-03T11:40:53.712Z,102144.52
2023-05-03T11:43:21.805Z,102138.01
2023-05-03T11:45:52.295Z,102140.46
2023-05-03T11:48:20.632Z,102136.63
2023-05-03T11:50:57.813Z,102136.73
2023-05-03T11:53:27.098Z,102142.06
2023-05-03T11:55:55.762Z,102137.35
2023-05-03T11:58:27.670Z,102140.03
2023-05-03T12:00:58.344Z,102137.25
2023-05-03T12:03:31.835Z,102143.60
2023-05-03T12:06:02.519Z,102131.04
2023-05-03T12:08:37.920Z,102129.99
2023-05-03T12:11:09.861Z,102128.52
2023-05-03T12:13:40.686Z,102122.27
2023-05-03T12:16:14.608Z,102119.95
2023-05-03T12:19:05.258Z,102110.27
2023-05-03T12:22:13.279Z,102111.13
2023-05-03T12:24:45.096Z,102099.59
2023-05-03T12:27:14.966Z,102106.74
2023-05-03T12:29:42.999Z,102112.23
2023-05-03T12:32:12.297Z,102104.06
2023-05-03T12:34:41.838Z,102091.70
2023-05-03T12:37:11.972Z,102091.73
2023-05-03T12:39:40.781Z,102090.76
2023-05-03T12:42:09.803Z,102092.09
2023-05-03T12:44:43.024Z,102096.84
2023-05-03T12:47:16.200Z,102095.59
2023-05-03T12:49:52.271Z,102086.96
2023-05-03T12:52:37.483Z,102095.92
2023-05-03T12:55:11.145Z,102089.58
2023-05-03T12:57:39.737Z,102091.70
2023-05-03T13:00:14.660Z,102076.17
2023-05-03T13:05:30.504Z,102073.75
2023-05-03T13:08:09.085Z,102072.73
2023-05-03T13:10:42.468Z,102075.94
2023-05-03T13:13:10.866Z,102074.86
2023-05-03T13:15:39.294Z,102070.64
2023-05-03T13:18:07.992Z,102074.05
2023-05-03T13:20:37.536Z,102056.38
2023-05-03T13:23:06.031Z,102068.23
2023-05-03T13:25:36.871Z,102058.48
2023-05-03T13:28:05.172Z,102055.60
2023-05-03T13:30:33.100Z,102059.27
2023-05-03T13:33:01.053Z,102062.17
2023-05-03T13:35:29.205Z,102064.79
2023-05-03T13:37:57.267Z,102060.31
2023-05-03T13:40:25.935Z,102054.52
2023-05-03T13:42:53.872Z,102061.09
2023-05-03T13:45:22.032Z,102051.61
2023-05-03T13:48:13.261Z,102052.69
2023-05-03T13:50:37.876Z,102057.14
2023-05-03T13:53:05.893Z,102045.30
2023-05-03T13:55:33.803Z,102037.78
2023-05-03T13:58:01.660Z,102042.00
2023-05-03T14:00:31.601Z,102030.39
2023-05-03T14:03:00.299Z,102034.38
2023-05-03T14:05:28.581Z,102028.07
2023-05-03T14:07:57.074Z,102027.77
2023-05-03T14:10:25.110Z,102032.29
2023-05-03T14:12:54.258Z,102026.23
2023-05-03T14:15:22.243Z,102024.90
2023-05-03T14:17:50.446Z,102018.32
2023-05-03T14:20:21.359Z,102014.70
2023-05-03T14:22:49.393Z,102011.78
2023-05-03T14:25:17.589Z,102014.98
2023-05-03T14:27:45.517Z,102009.46
2023-05-03T14:30:13.855Z,102017.93
2023-05-03T14:32:41.861Z,102016.59
2023-05-03T14:35:10.473Z,102020.29
2023-05-03T14:37:38.626Z,102015.80
2023-05-03T14:40:07.742Z,102008.41
2023-05-03T14:42:36.171Z,102004.20
2023-05-03T14:45:04.341Z,101997.10
2023-05-03T14:47:32.700Z,102003.15
2023-05-03T14:50:00.716Z,102006.35
2023-05-03T14:52:29.248Z,101994.75
2023-05-03T14:54:57.188Z,101993.66
2023-05-03T14:57:25.397Z,102002.14
2023-05-03T14:59:53.306Z,101991.31
2023-05-03T15:02:21.244Z,102000.34
2023-05-03T15:04:49.148Z,102004.59
2023-05-03T15:07:17.154Z,102002.73
2023-05-03T15:09:46.098Z,102009.07
2023-05-03T15:12:14.091Z,102005.67
2023-05-03T15:14:42.224Z,102007.53
2023-05-03T15:17:10.142Z,102002.53
2023-05-03T15:19:38.251Z,101995.95
2023-05-03T15:22:06.205Z,102000.73
2023-05-03T15:24:34.174Z,102003.64
2023-05-03T15:27:04.177Z,101996.52
2023-05-03T15:29:32.783Z,102000.50
2023-05-03T15:32:00.899Z,102002.07
2023-05-03T15:34:29.222Z,101993.11
2023-05-03T15:36:57.430Z,101990.98
2023-05-03T15:39:25.897Z,102001.02
2023-05-03T15:41:53.785Z,101995.53
2023-05-03T15:44:21.702Z,101993.14
2023-05-03T15:46:49.793Z,101982.59
2023-05-03T15:49:17.788Z,101979.48
2023-05-03T15:51:45.713Z,101984.22
2023-05-03T15:54:13.570Z,101976.27
2023-05-03T15:56:41.528Z,101966.00
2023-05-03T15:59:10.072Z,101972.61
2023-05-03T16:01:38.596Z,101974.70
2023-05-03T16:04:08.976Z,101957.83
2023-05-03T16:06:36.965Z,101975.26
2023-05-03T16:09:05.414Z,101970.22
2023-05-03T16:11:33.433Z,101967.57
2023-05-03T16:14:01.464Z,101971.04
2023-05-03T16:16:29.563Z,101969.17
2023-05-03T16:18:57.443Z,101963.65
2023-05-03T16:21:25.379Z,101974.44
2023-05-03T16:23:53.672Z,101966.30
2023-05-03T16:26:21.528Z,101969.70
2023-05-03T16:28:50.216Z,101962.05
2023-05-03T16:31:18.384Z,101963.39
2023-05-03T16:33:46.390Z,101977.35
2023-05-03T16:36:14.568Z,101971.53
2023-05-03T16:38:42.585Z,101965.22
2023-05-03T16:41:10.585Z,101964.40
2023-05-03T16:43:39.577Z,101967.57
2023-05-03T16:46:07.962Z,101970.78
2023-05-03T16:48:35.965Z,101967.31
2023-05-03T16:51:04.034Z,101965.48
2023-05-03T16:53:32.737Z,101968.09
2023-05-03T16:56:01.226Z,101970.19
2023-05-03T16:58:29.306Z,101968.33
2023-05-03T17:00:57.551Z,101963.84
2023-05-03T17:03:26.592Z,101965.94
2023-05-03T17:05:55.146Z,101966.20
2023-05-03T17:08:23.059Z,101958.55
2023-05-03T17:10:51.343Z,101964.86
2023-05-03T17:13:19.331Z,101963.81
2023-05-03T17:15:47.648Z,101974.08
2023-05-03T17:18:15.702Z,101972.18
2023-05-03T17:20:44.329Z,101958.22
2023-05-03T17:23:12.354Z,101967.15
2023-05-03T17:25:40.349Z,101957.37
2023-05-03T17:28:08.178Z,101960.74
2023-05-03T17:30:36.278Z,101972.31
2023-05-03T17:33:04.164Z,101970.65
2023-05-03T17:35:32.100Z,101977.48
2023-05-03T17:38:00.038Z,101973.23
2023-05-03T17:40:27.970Z,101975.03
2023-05-03T17:42:56.110Z,101979.97
2023-05-03T17:45:26.498Z,101978.37
2023-05-03T17:47:54.457Z,101983.04
2023-05-03T17:50:22.352Z,101985.63
2023-05-03T17:52:50.253Z,101983.47
2023-05-03T17:55:18.538Z,101992.85
2023-05-03T17:57:47.095Z,101984.12
2023-05-03T18:00:18.451Z,101981.18
2023-05-03T18:02:46.373Z,101984.84
2023-05-03T18:05:15.231Z,101975.29
2023-05-03T18:07:43.523Z,101991.31
2023-05-03T18:10:15.920Z,101983.37
2023-05-03T18:12:44.612Z,101980.39
2023-05-03T18:15:12.975Z,101985.33
2023-05-03T18:17:40.915Z,101980.30
2023-05-03T18:20:10.153Z,101982.81
2023-05-03T18:22:38.824Z,101982.48
2023-05-03T18:25:08.591Z,101986.34
2023-05-03T18:27:38.581Z,101986.27
2023-05-03T18:30:07.866Z,101982.81
2023-05-03T18:32:36.260Z,101985.63
2023-05-03T18:35:04.950Z,101982.68
2023-05-03T18:37:32.910Z,101981.50
2023-05-03T18:40:00.914Z,101982.52
2023-05-03T18:42:29.152Z,101992.42
2023-05-03T18:44:57.075Z,101994.45
2023-05-03T18:47:25.262Z,101994.35
2023-05-03T18:49:54.069Z,102001.65
2023-05-03T18:52:22.491Z,102005.27
2023-05-03T18:54:51.158Z,102005.21
2023-05-03T18:57:20.118Z,102003.51
2023-05-03T19:00:07.729Z,102014.43
2023-05-03T19:02:36.549Z,101998.64
2023-05-03T19:05:04.600Z,102006.91
2023-05-03T19:07:32.561Z,102004.23
2023-05-03T19:10:00.546Z,102011.52
2023-05-03T19:12:28.747Z,102006.45
2023-05-03T19:14:56.675Z,102006.35
2023-05-03T19:17:24.596Z,102010.48
2023-05-03T19:19:52.812Z,102015.35
2023-05-03T19:22:20.773Z,102008.97
2023-05-03T19:24:49.403Z,102021.43
2023-05-03T19:27:18.810Z,102020.32
2023-05-03T19:29:46.878Z,102026.79
2023-05-03T19:32:14.810Z,102023.49
2023-05-03T19:34:43.191Z,102027.88
2023-05-03T19:37:11.134Z,102019.92
2023-05-03T19:39:39.094Z,102018.20
2023-05-03T19:42:07.129Z,102023.39
2023-05-03T19:44:35.395Z,102025.38
2023-05-03T19:47:03.319Z,102020.29
2023-05-03T19:49:31.436Z,102020.48
2023-05-03T19:51:59.372Z,102018.26
2023-05-03T19:54:27.479Z,102022.80
2023-05-03T19:56:56.629Z,102023.00
2023-05-03T19:59:24.666Z,102030.23
2023-05-03T20:01:52.898Z,102026.47
2023-05-03T20:04:20.893Z,102028.23
2023-05-03T20:06:48.949Z,102025.23
2023-05-03T20:09:16.934Z,102025.88
2023-05-03T20:11:44.839Z,102030.23
2023-05-03T20:14:12.999Z,102028.82
2023-05-03T20:16:41.247Z,102031.60
2023-05-03T20:19:09.243Z,102026.20
2023-05-03T20:21:37.133Z,102032.65
2023-05-03T20:24:06.174Z,102025.62
2023-05-03T20:26:34.028Z,102028.88
2023-05-03T20:29:02.227Z,102019.30
2023-05-03T20:31:30.183Z,102022.05
2023-05-03T20:33:58.316Z,102020.81
2023-05-03T20:36:26.365Z,102025.48
2023-05-03T20:38:56.044Z,102018.78
2023-05-03T20:41:24.522Z,102018.16
2023-05-03T20:43:53.231Z,102013.52
2023-05-03T20:46:21.252Z,102017.70
2023-05-03T20:48:49.372Z,102010.34
2023-05-03T20:51:17.314Z,102010.67
2023-05-03T20:53:45.524Z,102004.91
2023-05-03T20:56:13.831Z,102011.16
2023-05-03T20:58:41.862Z,102004.30
2023-05-03T21:01:09.795Z,102005.57
2023-05-03T21:03:37.783Z,102000.50
2023-05-03T21:06:08.048Z,101994.39
2023-05-03T21:08:36.333Z,101999.85
2023-05-03T21:11:05.495Z,102004.49
2023-05-03T21:13:36.868Z,102003.38
2023-05-03T21:16:04.998Z,102006.42
2023-05-03T21:18:33.162Z,102012.34
2023-05-03T21:21:01.130Z,102006.75
2023-05-03T21:23:29.074Z,102008.52
2023-05-03T21:25:57.048Z,102014.47
2023-05-03T21:28:25.095Z,102014.62
2023-05-03T21:30:55.851Z,102011.09
2023-05-03T21:33:24.085Z,102010.48
2023-05-03T21:35:52.036Z,102012.73
2023-05-03T21:38:19.923Z,102008.74
2023-05-03T21:40:48.540Z,102002.17
2023-05-03T21:43:16.630Z,102000.73
2023-05-03T21:45:45.319Z,101995.17
2023-05-03T21:48:13.866Z,102006.52
2023-05-03T21:50:41.853Z,101996.77
2023-05-03T21:53:09.785Z,102003.94
2023-05-03T21:55:37.681Z,101995.50
2023-05-03T21:58:06.144Z,102005.08
2023-05-03T22:00:37.306Z,101995.01
2023-05-03T22:03:05.374Z,101998.51
2023-05-03T22:05:33.669Z,101989.71
2023-05-03T22:08:02.438Z,101988.63
2023-05-03T22:10:30.352Z,101986.21
2023-05-03T22:12:58.329Z,101984.77
2023-05-03T22:15:26.219Z,101983.66
2023-05-03T22:17:54.185Z,101980.16
2023-05-03T22:20:22.353Z,101982.22
2023-05-03T22:22:50.291Z,101972.15
2023-05-03T22:25:30.070Z,101975.52
2023-05-03T22:27:59.387Z,101976.44
2023-05-03T22:30:27.508Z,101968.78
2023-05-03T22:32:55.505Z,101971.79
2023-05-03T22:35:23.616Z,101964.59
2023-05-03T22:37:51.506Z,101967.97
2023-05-03T22:40:19.338Z,101972.58
2023-05-03T22:42:47.154Z,101967.45
2023-05-03T22:45:15.255Z,101965.84
2023-05-03T22:47:44.715Z,101969.70
2023-05-03T22:50:12.812Z,101969.83
2023-05-03T22:52:40.788Z,101958.98
2023-05-03T22:55:09.660Z,101969.01
2023-05-03T22:57:37.914Z,101961.00
2023-05-03T23:00:06.508Z,101957.05
2023-05-03T23:02:35.144Z,101958.77
2023-05-03T23:05:03.160Z,101958.91
2023-05-03T23:07:31.638Z,101967.21
2023-05-03T23:10:04.506Z,101950.14
2023-05-03T23:12:32.632Z,101956.32
2023-05-03T23:15:00.998Z,101960.15
2023-05-03T23:17:29.044Z,101958.25
2023-05-03T23:19:57.099Z,101960.45
2023-05-03T23:22:25.070Z,101958.19
2023-05-03T23:24:52.896Z,101957.08
2023-05-03T23:27:20.787Z,101951.78
2023-05-03T23:29:49.501Z,101953.55
2023-05-03T23:32:17.877Z,101960.22
2023-05-03T23:34:46.229Z,101960.38
2023-05-03T23:37:14.129Z,101957.14
2023-05-03T23:39:46.059Z,101962.57
2023-05-03T23:42:14.252Z,101962.70
2023-05-03T23:44:54.591Z,101951.84
2023-05-03T23:47:23.589Z,101951.84
2023-05-03T23:49:51.535Z,101952.92
2023-05-03T23:52:21.236Z,101950.54
2023-05-03T23:54:49.286Z,101953.38
2023-05-03T23:57:17.484Z,101939.19
2023-05-03T23:59:45.630Z,101951.48
